.
WxDataArchive / Data Records for 2008-08-04
2008-08-03 August 2008 2008-08-05

Data Records for Monday, 04 August 2008

Time	Temp	Chill	HIndex	Humid	Dewpt	 Wind 	HiWind	WindDir	Rain 	Barom 
-----	----	-----	------	-----	-----	------	------	-------	-----	----- 
00:00	69.9	69.9	69.9	76	62.0	0	0	---	0.00	29.930 
00:05	69.8	69.8	69.8	76	61.9	0	0	---	0.00	29.930 
00:10	69.6	69.6	69.6	77	62.1	0	0	---	0.00	29.930 
00:15	69.4	69.4	69.4	77	61.9	0	0	---	0.00	29.933 
00:20	69.3	69.3	69.3	77	61.8	0	0	---	0.00	29.933 
00:25	69.1	69.1	69.1	78	61.9	0	0	---	0.00	29.933 
00:30	68.9	68.9	68.9	79	62.1	0	0	---	0.00	29.931 
00:35	68.6	68.6	68.6	79	61.8	0	0	---	0.00	29.931 
00:40	68.4	68.4	68.4	80	62.0	0	0	---	0.00	29.931 
00:45	68.3	68.3	68.3	80	61.9	0	0	---	0.00	29.926 
00:50	68.1	68.1	68.1	81	62.0	0	0	---	0.00	29.926 
00:55	67.9	67.9	67.9	81	61.8	0	0	---	0.00	29.926 
01:00	67.8	67.8	67.8	82	62.1	0	0	---	0.00	29.925 
01:05	67.6	67.6	67.6	83	62.2	0	0	---	0.00	29.925 
01:10	67.4	67.4	67.4	83	62.0	0	0	---	0.00	29.925 
01:15	67.4	67.4	67.4	84	62.4	0	0	---	0.00	29.923 
01:20	67.3	67.3	67.3	84	62.3	0	0	---	0.00	29.923 
01:25	67.3	67.3	67.3	84	62.3	0	0	---	0.00	29.923 
01:30	67.3	67.3	67.3	83	62.0	0	0	---	0.00	29.916 
01:35	67.4	67.4	67.4	83	62.0	0	0	---	0.00	29.916 
01:40	67.4	67.4	67.4	83	62.0	0	0	---	0.00	29.916 
01:45	67.4	67.4	67.4	83	62.0	0	0	---	0.00	29.907 
01:50	67.4	67.4	67.4	82	61.7	0	0	---	0.00	29.907 
01:55	67.6	67.6	67.6	81	61.6	0	1	135	0.00	29.907 
02:00	67.6	67.6	67.6	81	61.6	0	1	135	0.00	29.892 
02:05	67.6	67.6	67.6	80	61.2	0	3	270	0.00	29.892 
02:10	67.6	67.6	67.6	80	61.2	0	1	270	0.00	29.892 
02:15	67.8	67.8	67.8	79	61.0	0	2	270	0.00	29.891 
02:20	68.3	68.3	68.3	77	60.8	0	1	270	0.00	29.891 
02:25	68.6	68.6	68.6	76	60.7	0	1	270	0.00	29.891 
02:30	68.8	68.8	68.8	75	60.5	0	2	270	0.00	29.883 
02:35	68.9	68.9	68.9	75	60.6	0	2	270	0.00	29.883 
02:40	68.9	68.9	68.9	75	60.6	0	1	270	0.00	29.883 
02:45	68.9	68.9	68.9	74	60.3	0	2	270	0.00	29.885 
02:50	68.9	68.9	68.9	74	60.3	0	1	270	0.00	29.885 
02:55	68.9	68.9	68.9	74	60.3	0	1	270	0.00	29.885 
03:00	68.9	68.9	68.9	74	60.3	0	1	270	0.00	29.896 
03:05	68.9	68.9	68.9	74	60.3	0	3	270	0.00	29.896 
03:10	68.9	68.9	68.9	74	60.3	0	2	270	0.00	29.896 
03:15	68.9	68.9	68.9	74	60.3	0	1	270	0.00	29.897 
03:20	68.8	68.8	68.8	75	60.5	0	1	270	0.00	29.897 
03:25	68.6	68.6	68.6	75	60.3	0	2	270	0.00	29.897 
03:30	68.6	68.6	68.6	75	60.3	0	1	248	0.00	29.896 
03:35	68.6	68.6	68.6	75	60.3	0	3	248	0.00	29.896 
03:40	68.4	68.4	68.4	75	60.2	0	1	248	0.00	29.896 
03:45	68.4	68.4	68.4	75	60.2	0	2	248	0.00	29.901 
03:50	68.3	68.3	68.3	75	60.1	0	1	248	0.00	29.901 
03:55	68.3	68.3	68.3	75	60.1	0	1	248	0.00	29.901 
04:00	68.4	68.4	68.4	75	60.2	1	3	248	0.00	29.901 
04:05	68.4	68.4	68.4	75	60.2	0	2	248	0.00	29.901 
04:10	68.4	68.4	68.4	75	60.2	0	1	248	0.00	29.901 
04:15	68.3	68.3	68.3	75	60.1	0	1	248	0.00	29.901 
04:20	68.1	68.1	68.1	76	60.2	0	0	---	0.00	29.901 
04:25	67.8	67.8	67.8	77	60.3	0	0	---	0.00	29.901 
04:30	67.6	67.6	67.6	77	60.1	0	0	---	0.00	29.902 
04:35	67.3	67.3	67.3	77	59.8	0	0	---	0.00	29.902 
04:40	67.1	67.1	67.1	78	60.0	0	0	---	0.00	29.902 
04:45	66.8	66.8	66.8	79	60.1	0	0	---	0.00	29.903 
04:50	66.6	66.6	66.6	80	60.2	0	0	---	0.00	29.903 
04:55	66.3	66.3	66.3	81	60.3	0	0	---	0.00	29.903 
05:00	66.1	66.1	66.1	81	60.1	0	0	---	0.00	29.900 
05:05	66.0	66.0	66.0	81	60.0	0	0	---	0.00	29.900 
05:10	65.8	65.8	65.8	82	60.1	0	0	---	0.00	29.900 
05:15	65.6	65.6	65.6	82	59.9	0	1	248	0.00	29.901 
05:20	65.6	65.6	65.6	82	59.9	0	1	248	0.00	29.901 
05:25	65.6	65.6	65.6	83	60.3	0	0	---	0.00	29.901 
05:30	65.6	65.6	65.6	82	59.9	0	0	---	0.00	29.906 
05:35	65.6	65.6	65.6	82	59.9	0	0	---	0.00	29.906 
05:40	65.5	65.5	65.5	83	60.2	0	0	---	0.00	29.906 
05:45	65.3	65.3	65.3	83	60.0	0	0	---	0.00	29.918 
05:50	65.3	65.3	65.3	83	60.0	0	0	---	0.00	29.918 
05:55	65.2	65.2	65.2	84	60.2	0	0	---	0.00	29.918 
06:00	65.0	65.0	65.0	85	60.4	0	0	---	0.00	29.933 
06:05	64.8	64.8	64.8	85	60.2	0	1	248	0.00	29.933 
06:10	65.2	65.2	65.2	85	60.6	0	2	248	0.00	29.933 
06:15	65.5	65.5	65.5	84	60.5	1	2	248	0.00	29.938 
06:20	65.8	65.8	65.8	83	60.5	0	2	248	0.00	29.938 
06:25	65.8	65.8	65.8	83	60.5	1	3	248	0.00	29.938 
06:30	66.0	66.0	66.0	82	60.3	1	4	68	0.00	29.945 
06:35	66.0	66.0	66.0	82	60.3	0	2	68	0.00	29.945 
06:40	66.1	66.1	66.1	83	60.8	0	1	68	0.00	29.945 
06:45	66.3	66.3	66.3	83	61.0	0	1	68	0.00	29.951 
06:50	66.4	66.4	66.4	83	61.1	0	2	68	0.00	29.951 
06:55	66.4	66.4	66.4	83	61.1	0	2	68	0.00	29.951 
07:00	66.4	66.4	66.4	83	61.1	0	2	68	0.00	29.951 
07:05	66.6	66.6	66.6	83	61.3	0	2	68	0.00	29.951 
07:10	66.8	66.8	66.8	83	61.5	0	2	68	0.00	29.951 
07:15	67.1	67.1	67.1	82	61.4	0	2	68	0.00	29.949 
07:20	67.8	67.8	67.8	81	61.7	1	3	68	0.00	29.949 
07:25	68.4	68.4	68.4	79	61.6	2	4	68	0.00	29.949 
07:30	68.9	68.9	68.9	78	61.7	1	3	68	0.00	29.949 
07:35	69.4	69.4	69.4	77	61.9	0	2	68	0.00	29.949 
07:40	69.9	69.9	69.9	76	62.0	1	3	68	0.00	29.949 
07:45	70.1	70.1	70.1	76	62.2	1	3	68	0.00	29.949 
07:50	70.4	70.4	70.4	75	62.1	1	3	90	0.00	29.949 
07:55	70.8	70.8	70.8	75	62.5	0	3	90	0.00	29.949 
08:00	70.9	70.9	70.9	74	62.2	0	2	90	0.00	29.950 
08:05	70.9	70.9	70.9	75	62.6	1	2	90	0.00	29.950 
08:10	71.1	71.1	71.1	75	62.8	0	2	90	0.00	29.950 
08:15	71.5	71.5	71.5	75	63.1	1	3	90	0.00	29.947 
08:20	71.6	71.6	71.6	74	62.9	1	2	90	0.00	29.947 
08:25	72.0	72.0	72.0	75	63.6	1	2	90	0.00	29.947 
08:30	72.1	72.1	72.1	74	63.3	0	2	90	0.00	29.941 
08:35	72.3	72.3	72.3	74	63.5	1	3	90	0.00	29.941 
08:40	72.3	72.3	72.3	75	63.9	1	3	90	0.00	29.941 
08:45	72.5	72.5	72.5	73	63.3	1	3	90	0.00	29.936 
08:50	72.7	72.7	72.7	73	63.5	0	2	90	0.00	29.936 
08:55	73.0	73.0	73.0	73	63.8	0	2	90	0.00	29.936 
09:00	73.2	73.2	73.2	72	63.6	1	3	90	0.00	29.930 
09:05	73.3	73.3	73.3	71	63.3	1	3	90	0.00	29.930 
09:10	73.5	73.5	73.5	72	63.9	1	4	90	0.00	29.930 
09:15	73.5	73.5	73.5	71	63.5	0	3	90	0.00	29.937 
09:20	73.7	73.7	73.7	71	63.7	0	3	90	0.00	29.937 
09:25	73.9	73.9	73.9	71	63.9	0	1	90	0.00	29.937 
09:30	74.0	74.0	74.0	71	64.0	0	2	90	0.00	29.943 
09:35	74.2	74.2	74.2	72	64.6	0	2	90	0.00	29.943 
09:40	74.2	74.2	74.2	71	64.2	0	1	90	0.00	29.943 
09:45	74.2	74.2	74.2	71	64.2	0	1	90	0.00	29.949 
09:50	74.2	74.2	74.2	70	63.8	0	2	90	0.00	29.949 
09:55	74.2	74.2	74.2	69	63.4	0	2	90	0.00	29.949 
10:00	74.0	74.0	74.0	71	64.0	0	0	---	0.00	29.952 
10:05	73.7	73.7	73.7	71	63.7	3	11	292	0.00	29.952 
10:10	72.8	72.8	72.8	72	63.2	2	6	270	0.00	29.952 
10:15	72.7	72.7	72.7	73	63.5	0	1	270	0.00	30.002 
10:20	72.5	72.5	72.5	75	64.1	0	3	270	0.00	30.002 
10:25	72.0	72.0	72.0	78	64.8	0	1	270	0.01	30.002 
10:30	71.3	71.3	71.3	81	65.2	0	1	270	0.00	30.016 
10:35	70.8	70.8	70.8	83	65.4	0	1	270	0.00	30.016 
10:40	70.4	70.4	70.4	84	65.3	0	0	---	0.00	30.016 
10:45	70.3	70.3	70.3	85	65.6	0	0	---	0.00	30.012 
10:50	70.3	70.3	70.3	86	65.9	0	0	---	0.01	30.012 
10:55	70.1	70.1	70.1	87	66.0	0	2	270	0.01	30.012 
11:00	69.8	69.8	69.8	88	66.1	1	3	158	0.01	29.973 
11:05	69.3	69.3	69.3	89	65.9	4	7	112	0.01	29.973 
11:10	68.8	68.8	68.8	90	65.7	1	5	112	0.00	29.973 
11:15	68.6	68.6	68.6	90	65.5	1	4	90	0.00	29.908 
11:20	68.8	68.8	68.8	90	65.7	1	4	112	0.00	29.906 
11:25	69.1	69.1	69.1	91	66.4	1	3	112	0.00	29.890 
11:30	69.4	69.4	69.4	91	66.7	1	6	135	0.00	29.873 
11:35	69.9	69.9	69.9	90	66.8	2	5	90	0.00	29.867 
11:40	70.4	70.4	70.4	89	67.0	1	4	112	0.00	29.867 
11:45	70.8	70.8	70.8	88	67.1	1	4	45	0.00	29.873 
11:50	71.3	71.3	71.3	87	67.2	1	4	90	0.00	29.876 
11:55	71.6	71.6	71.6	87	67.5	1	2	45	0.00	29.891 
12:00	72.5	72.5	72.5	88	68.7	1	3	45	0.00	29.898 
12:05	73.5	73.5	73.5	86	69.0	1	3	248	0.00	29.903 
12:10	74.4	74.4	74.4	84	69.2	1	5	248	0.00	29.901 
12:15	75.1	75.1	75.6	81	68.9	2	5	90	0.00	29.912 
12:20	75.4	75.4	76.1	80	68.8	2	5	270	0.00	29.912 
12:25	75.6	75.6	76.7	77	67.9	2	6	270	0.00	29.918 
12:30	76.0	76.0	77.2	77	68.3	2	7	248	0.00	29.917 
12:35	76.3	76.3	77.7	75	67.8	2	6	248	0.00	29.918 
12:40	76.1	76.1	77.6	73	66.8	3	7	248	0.00	29.920 
12:45	76.1	76.1	77.5	74	67.2	2	6	338	0.00	29.925 
12:50	75.8	75.8	77.2	74	66.9	2	7	270	0.00	29.934 
12:55	76.0	76.0	77.4	75	67.5	3	6	270	0.00	29.934 
13:00	76.5	76.5	78.0	75	68.0	2	5	248	0.00	29.934 
13:05	77.2	77.2	79.0	73	67.9	3	6	270	0.00	29.947 
13:10	78.1	78.1	80.2	72	68.3	3	6	248	0.00	29.946 
13:15	78.5	78.5	80.5	67	66.6	4	7	270	0.00	29.945 
13:20	78.1	78.1	80.1	68	66.7	3	9	270	0.00	29.940 
13:25	78.1	78.1	80.2	70	67.5	2	5	248	0.00	29.926 
13:30	78.6	78.6	80.9	71	68.4	1	3	248	0.00	29.916 
13:35	79.4	79.4	81.6	65	66.6	2	5	270	0.00	29.913 
13:40	79.6	79.6	82.0	67	67.7	1	4	292	0.00	29.911 
13:45	79.6	79.6	82.0	67	67.7	1	4	248	0.00	29.901 
13:50	80.3	80.3	82.9	66	67.9	1	5	248	0.00	29.897 
13:55	80.5	80.5	83.2	66	68.1	2	5	270	0.00	29.887 
14:00	81.1	81.1	84.1	66	68.6	2	7	270	0.00	29.888 
14:05	80.5	80.5	83.1	65	67.6	2	4	270	0.00	29.890 
14:10	79.9	79.9	82.2	65	67.1	2	6	292	0.00	29.885 
14:15	79.9	79.9	82.2	65	67.1	2	6	90	0.00	29.883 
14:20	80.3	80.3	83.0	67	68.3	0	2	90	0.00	29.882 
14:25	80.7	80.7	83.4	65	67.8	1	3	270	0.00	29.880 
14:30	80.9	80.9	83.7	65	68.0	1	3	45	0.00	29.875 
14:35	80.7	80.7	83.4	65	67.8	1	4	90	0.00	29.867 
14:40	80.7	80.7	83.1	63	66.9	1	3	90	0.00	29.866 
14:45	81.1	81.1	83.8	64	67.7	0	2	90	0.00	29.862 
14:50	82.2	82.2	84.9	61	67.4	1	4	90	0.00	29.861 
14:55	82.8	82.8	85.4	59	67.0	1	5	248	0.00	29.859 
15:00	83.0	83.0	85.9	60	67.7	1	3	248	0.00	29.862 
15:05	83.4	83.4	86.3	59	67.5	1	3	270	0.00	29.865 
15:10	83.8	83.8	87.5	61	68.9	1	4	68	0.00	29.863 
15:15	83.4	83.4	86.3	59	67.5	1	5	270	0.00	29.866 
15:20	83.0	83.0	85.9	60	67.7	1	3	248	0.00	29.867 
15:25	82.6	82.6	85.3	60	67.3	1	4	248	0.00	29.869 
15:30	82.8	82.8	85.4	59	67.0	1	4	248	0.00	29.867 
15:35	82.6	82.6	85.1	59	66.8	1	3	248	0.00	29.874 
15:40	82.2	82.2	84.9	61	67.4	1	3	270	0.00	29.880 
15:45	82.0	82.0	84.6	61	67.2	2	4	270	0.00	29.880 
15:50	81.8	81.8	84.5	62	67.5	1	5	248	0.00	29.879 
15:55	82.2	82.2	85.5	64	68.8	1	5	225	0.00	29.871 
16:00	82.6	82.6	85.7	62	68.2	0	2	112	0.00	29.866 
16:05	82.4	82.4	85.6	63	68.5	1	3	112	0.00	29.869 
16:10	82.0	82.0	84.8	62	67.7	1	3	270	0.00	29.868 
16:15	81.8	81.8	84.9	64	68.4	0	2	270	0.00	29.869 
16:20	81.6	81.6	84.6	64	68.2	0	2	270	0.00	29.871 
16:25	81.4	81.4	84.3	64	68.0	0	2	292	0.00	29.878 
16:30	81.2	81.2	84.0	64	67.8	0	2	292	0.00	29.877 
16:35	81.1	81.1	83.5	62	66.8	1	2	292	0.00	29.878 
16:40	80.9	80.9	83.2	62	66.6	1	3	248	0.00	29.882 
16:45	80.7	80.7	82.9	62	66.4	1	3	270	0.00	29.881 
16:50	80.5	80.5	82.8	63	66.7	0	2	248	0.00	29.881 
16:55	80.5	80.5	83.1	65	67.6	0	3	90	0.00	29.883 
17:00	80.7	80.7	83.5	66	68.3	0	2	90	0.00	29.891 
17:05	80.7	80.7	83.4	65	67.8	0	2	90	0.00	29.888 
17:10	80.7	80.7	83.4	65	67.8	1	3	270	0.00	29.889 
17:15	80.5	80.5	82.9	64	67.2	1	2	270	0.00	29.886 
17:20	80.5	80.5	83.1	65	67.6	1	3	270	0.00	29.885 
17:25	80.5	80.5	83.3	67	68.5	0	3	248	0.00	29.883 
17:30	80.7	80.7	83.5	66	68.3	1	4	90	0.00	29.880 
17:35	80.7	80.7	83.5	66	68.3	0	2	68	0.00	29.884 
17:40	80.5	80.5	83.2	66	68.1	1	4	90	0.00	29.884 
17:45	80.5	80.5	83.3	67	68.5	1	3	90	0.00	29.872 
17:50	80.5	80.5	83.3	67	68.5	1	4	90	0.00	29.876 
17:55	80.3	80.3	83.2	68	68.8	0	2	338	0.00	29.881 
18:00	80.1	80.1	82.9	68	68.6	1	3	315	0.00	29.886 
18:05	79.8	79.8	82.5	69	68.7	1	3	292	0.00	29.881 
18:10	79.8	79.8	82.6	70	69.1	0	1	292	0.00	29.881 
18:15	79.6	79.6	82.3	70	68.9	0	1	292	0.00	29.884 
18:20	79.4	79.4	82.0	70	68.7	0	1	292	0.00	29.889 
18:25	79.4	79.4	82.1	71	69.2	0	1	292	0.00	29.887 
18:30	79.6	79.6	82.4	71	69.3	0	1	292	0.00	29.885 
18:35	79.6	79.6	82.4	71	69.3	0	0	---	0.00	29.883 
18:40	79.6	79.6	82.4	71	69.3	0	2	292	0.00	29.879 
18:45	79.6	79.6	82.4	71	69.3	0	1	292	0.00	29.879 
18:50	79.4	79.4	82.2	72	69.6	0	1	292	0.00	29.877 
18:55	79.2	79.2	81.9	72	69.4	0	1	292	0.00	29.881 
19:00	79.0	79.0	81.6	73	69.6	0	1	292	0.00	29.876 
19:05	78.8	78.8	81.3	73	69.4	0	1	292	0.00	29.867 
19:10	78.6	78.6	81.0	73	69.2	0	1	292	0.00	29.866 
19:15	78.6	78.6	81.1	74	69.6	0	1	292	0.00	29.865 
19:20	78.6	78.6	81.1	75	70.0	0	1	292	0.00	29.863 
19:25	78.5	78.5	81.0	75	69.9	0	1	292	0.00	29.863 
19:30	78.3	78.3	80.7	76	70.1	0	1	292	0.00	29.865 
19:35	78.1	78.1	80.4	76	69.9	0	1	292	0.00	29.861 
19:40	77.9	77.9	80.1	77	70.1	0	1	292	0.00	29.865 
19:45	77.7	77.7	79.7	78	70.3	0	1	292	0.00	29.867 
19:50	77.4	77.4	79.3	78	70.0	0	0	---	0.00	29.873 
19:55	77.2	77.2	78.9	79	70.2	0	0	---	0.00	29.878 
20:00	76.8	76.8	78.3	79	69.8	0	0	---	0.00	29.881 
20:05	76.7	76.7	78.1	80	70.0	0	0	---	0.00	29.877 
20:10	76.3	76.3	77.4	81	70.0	0	0	---	0.00	29.880 
20:15	76.1	76.1	77.0	82	70.2	0	0	---	0.00	29.888 
20:20	76.0	76.0	76.7	83	70.4	0	0	---	0.00	29.888 
20:25	75.8	75.8	76.4	83	70.3	0	0	---	0.00	29.884 
20:30	75.8	75.8	76.3	84	70.6	0	0	---	0.00	29.883 
20:35	75.6	75.6	76.0	84	70.4	0	0	---	0.00	29.885 
20:40	75.6	75.6	76.0	84	70.4	0	0	---	0.00	29.886 
20:45	75.4	75.4	75.7	84	70.2	0	0	---	0.00	29.879 
20:50	75.4	75.4	75.5	85	70.6	0	1	292	0.00	29.868 
20:55	75.4	75.4	75.7	84	70.2	0	1	292	0.00	29.867 
21:00	75.4	75.4	75.7	84	70.2	0	1	292	0.00	29.867 
21:05	75.3	75.3	75.5	84	70.1	0	0	---	0.00	29.871 
21:10	75.1	75.1	75.2	84	69.9	0	0	---	0.00	29.878 
21:15	75.1	75.1	75.0	85	70.3	0	0	---	0.00	29.886 
21:20	74.9	74.9	74.9	85	70.1	0	0	---	0.00	29.893 
21:25	74.9	74.9	74.9	85	70.1	0	0	---	0.00	29.891 
21:30	74.7	74.7	74.7	86	70.2	0	0	---	0.00	29.893 
21:35	74.6	74.6	74.6	86	70.1	0	0	---	0.00	29.888 
21:40	74.4	74.4	74.4	87	70.3	0	0	---	0.00	29.895 
21:45	74.2	74.2	74.2	87	70.1	0	0	---	0.00	29.901 
21:50	74.2	74.2	74.2	87	70.1	0	0	---	0.00	29.899 
21:55	74.0	74.0	74.0	88	70.2	0	0	---	0.00	29.899 
22:00	74.0	74.0	74.0	88	70.2	0	0	---	0.00	29.896 
22:05	73.9	73.9	73.9	88	70.1	0	0	---	0.00	29.900 
22:10	73.9	73.9	73.9	89	70.4	0	0	---	0.00	29.900 
22:15	73.7	73.7	73.7	89	70.2	0	0	---	0.00	29.896 
22:20	73.7	73.7	73.7	89	70.2	0	0	---	0.00	29.888 
22:25	73.9	73.9	73.9	89	70.4	0	2	292	0.00	29.884 
22:30	74.0	74.0	74.0	89	70.5	1	2	292	0.00	29.870 
22:35	74.0	74.0	74.0	88	70.2	0	1	292	0.00	29.875 
22:40	74.2	74.2	74.2	88	70.4	0	0	---	0.00	29.877 
22:45	74.2	74.2	74.2	88	70.4	0	0	---	0.00	29.884 
22:50	74.2	74.2	74.2	88	70.4	0	1	292	0.00	29.879 
22:55	74.4	74.4	74.4	89	70.9	2	7	292	0.00	29.927 
23:00	73.2	73.2	73.2	82	67.4	6	12	270	0.05	29.965 
23:05	70.9	70.9	70.9	87	66.8	4	9	248	0.16	29.958 
23:10	69.8	69.8	69.8	90	66.7	4	7	270	0.09	29.962 
23:15	69.1	69.1	69.1	92	66.7	3	6	270	0.04	29.947 
23:20	68.6	68.6	68.6	92	66.2	1	5	248	0.02	29.936 
23:25	68.4	68.4	68.4	93	66.3	2	4	270	0.02	29.937 
23:30	68.3	68.3	68.3	93	66.2	2	4	248	0.01	29.930 
23:35	68.1	68.1	68.1	94	66.3	1	5	248	0.00	29.922 
23:40	68.3	68.3	68.3	94	66.5	2	5	270	0.01	29.922 
23:45	68.1	68.1	68.1	94	66.3	2	6	270	0.00	29.920 
23:50	68.3	68.3	68.3	95	66.8	1	4	248	0.01	29.920 
23:55	68.3	68.3	68.3	95	66.8	2	4	248	0.01	29.920 

CoCoRaHS
IN-AL-39
A2 Web Hosting
Creative Commons License
GoDaddy
Look for:

loaded 2017-12-12 07:10:21 • last modified 2010-11-18 10:43:29
Privacy PolicyDisclaimer
• wx.awcolley.com is powered by PmWiki v.2002016 •
• all content (unless otherwise noted) © 2017 A W Colley